LIPZLIBD

Guest
Details From LIPZ - Venezia Tessera
To LIBD - Bari Palese Macchie
Flight Number -
Tags decoded
Created
Modified
Stats Distance 325 nm / 602 km
Max Altitude 0 ft / 0 m
Waypoints 3
Social Downloads 9
Likes 0
Share VATSIM

Download

Looking for another format? Having issues loading an existing format? Contact us
Advertisement - Login to hide

Notes

Requested: LIPZ BASOG UY941 ARDAM UL612 VIE LIBD Unmatched points: BASOG UY941 ARDAM UL612

Route

LIPZ VIE LIBD

ID Type Via Altitude (ft/m) Position (lat/lon) Dist (leg/tot) Name
O LIPZ APT - 0 / 0 45.50479 / 12.34969 - / 0 nm Venezia Tessera
VIE VOR - 0 / 0 41.91274 / 16.04914 268 / 268 nm VIESTE VOR-DME
O LIBD APT - 0 / 0 41.13787 / 16.75832 56 / 325 nm Bari Palese Macchie

Altitude Profile

Advertisement - Login to hide

Weather


0- 5 10 15 20 25 30 35+ Temperature / °C

Clouds and Precipitation
Forecast for 2019-05-26 12:00 UTC. Updated 4 hours ago

Ground ~20,000 ft ~40,000 ft Winds

LIPZ

Details ICAO LIPZ (VCE)
Name Venice Marco Polo
Region Italy
Timezone Europe/Rome (UTC+2.0)
Stats Elevation 4 ft / 1 m (AMSL)
Location 45.504800° 12.349700°
Runways 2
Magnetic Variation 3.344° E

METAR

LIPZ 261320Z 15006KT 110V200 CAVOK 22/13 Q1014 NOSIG

Decode

TAF

TAF LIPZ 261100Z 2612/2718 12010KT 9999 SCT020 BECMG 2617/2619 04007KT TEMPO 2700/2709 3000 RA BKN014 TEMPO 2709/2718 SHRA

Decode

Departure Runways

ID Width Length Bearing (true/mag) Surface Threshold Overrun Markings Lighting
04L 148 ft / 45 m 9,129 ft / 2,782 m 42.03° / 38.69° ASPHALT 318 ft / 97 m 0 ft / 0 m PREC-APP CENTERLINE EDGE THRESHOLD MALSR REIL-OMNI
04R 148 ft / 45 m 10,836 ft / 3,303 m 42.03° / 38.68° ASPHALT 0 ft / 0 m 0 ft / 0 m PREC-APP CENTERLINE EDGE THRESHOLD SSALR REIL-OMNI
22L 148 ft / 45 m 10,836 ft / 3,303 m 222.05° / 218.71° ASPHALT 0 ft / 0 m 0 ft / 0 m PREC-APP CENTERLINE EDGE THRESHOLD SALS REIL-OMNI
22R 148 ft / 45 m 9,129 ft / 2,782 m 222.05° / 218.70° ASPHALT 0 ft / 0 m 0 ft / 0 m PREC-APP CENTERLINE EDGE THRESHOLD SALS REIL-OMNI

LIBD

Details ICAO LIBD (BRI)
Name Bari Karol Wojtyla
Region Italy
Timezone Europe/Rome (UTC+2.0)
Stats Elevation 174 ft / 53 m (AMSL)
Location 41.137900° 16.758300°
Runways 1
Magnetic Variation 3.885° E

METAR

LIBD 261320Z 12007KT 9999 FEW040 17/15 Q1013

Decode

TAF

TAF LIBD 261100Z 2612/2712 11014KT 9999 SCT040 TEMPO 2618/2706 RA= TAF LIBP 261100Z 2612/2712 12012KT 9999 SCT020 BKN070 TEMPO 2612/2621 SHRA TEMPO 2706/2712 RA

Decode

Destination Runways

ID Width Length Bearing (true/mag) Surface Threshold Overrun Markings Lighting
07 148 ft / 45 m 9,260 ft / 2,823 m 69.39° / 65.50° ASPHALT 1,220 ft / 372 m 0 ft / 0 m PREC-APP CENTERLINE EDGE THRESHOLD ALSF-II REIL-OMNI
25 148 ft / 45 m 9,260 ft / 2,823 m 249.41° / 245.52° ASPHALT 0 ft / 0 m 0 ft / 0 m PREC-APP CENTERLINE EDGE THRESHOLD SALS REIL-OMNI

Approach Navaids

Runway Type Ident Frequency Range Bearing (true/mag) Slope Elevation
07 DME BAP 111.35 MHz 18 nm / 33 km - - 183 ft / 56 m (AMSL)
07 OM OM - - 69.25° / 65.36 ° - 177 ft / 54 m (AMSL)
07 LOC-ILS BAP 111.35 MHz 18 nm / 33 km 69.39° / 65.50 ° - 175 ft / 53 m (AMSL)
07 GS BAP 111.35 MHz 10 nm / 19 km 69.39° / 65.50 ° 3.32° 175 ft / 53 m (AMSL)

Popular Alternatives